createdAt,value
2018-10-02T00:00:03.874Z,2.37
2018-10-02T00:02:32.269Z,3.03
2018-10-02T00:05:00.684Z,2.33
2018-10-02T00:07:29.093Z,2.40
2018-10-02T00:09:57.491Z,3.10
2018-10-02T00:12:31.322Z,2.43
2018-10-02T00:14:59.847Z,2.47
2018-10-02T00:17:28.198Z,2.03
2018-10-02T00:19:56.587Z,2.13
2018-10-02T00:22:24.950Z,2.50
2018-10-02T00:24:53.331Z,2.93
2018-10-02T00:27:21.714Z,3.10
2018-10-02T00:29:50.190Z,2.33
2018-10-02T00:32:18.741Z,2.17
2018-10-02T00:34:47.157Z,1.90
2018-10-02T00:37:15.636Z,2.17
2018-10-02T00:39:44.330Z,2.33
2018-10-02T00:42:12.787Z,2.33
2018-10-02T00:44:41.185Z,2.20
2018-10-02T00:47:09.618Z,2.20
2018-10-02T00:49:38.137Z,2.63
2018-10-02T00:52:06.859Z,2.47
2018-10-02T00:54:35.278Z,2.40
2018-10-02T00:57:03.795Z,2.50
2018-10-02T00:59:32.221Z,2.80
2018-10-02T01:02:00.688Z,3.10
2018-10-02T01:04:29.075Z,2.40
2018-10-02T01:06:57.467Z,2.47
2018-10-02T01:09:25.884Z,2.30
2018-10-02T01:11:54.329Z,2.30
2018-10-02T01:14:22.798Z,2.20
2018-10-02T01:16:51.228Z,2.13
2018-10-02T01:19:19.730Z,2.57
2018-10-02T01:21:48.406Z,2.10
2018-10-02T01:24:17.302Z,1.90
2018-10-02T01:26:45.700Z,2.43
2018-10-02T01:29:14.058Z,1.87
2018-10-02T01:31:42.441Z,2.13
2018-10-02T01:34:11.009Z,1.90
2018-10-02T01:36:39.389Z,2.03
2018-10-02T01:39:08.059Z,1.90
2018-10-02T01:41:36.454Z,2.20
2018-10-02T01:44:04.842Z,2.53
2018-10-02T01:46:33.270Z,2.80
2018-10-02T01:49:01.643Z,2.07
2018-10-02T01:51:30.201Z,2.30
2018-10-02T01:53:58.524Z,3.43
2018-10-02T01:56:26.870Z,2.63
2018-10-02T01:58:55.225Z,2.30
2018-10-02T02:01:23.626Z,2.30
2018-10-02T02:03:52.061Z,3.03
2018-10-02T02:06:20.600Z,2.77
2018-10-02T02:08:49.082Z,2.20
2018-10-02T02:11:17.513Z,3.13
2018-10-02T02:13:46.004Z,2.63
2018-10-02T02:16:14.458Z,2.70
2018-10-02T02:18:42.838Z,3.40
2018-10-02T02:21:11.363Z,2.33
2018-10-02T02:23:39.768Z,3.07
2018-10-02T02:26:08.138Z,2.80
2018-10-02T02:28:36.541Z,2.63
2018-10-02T02:31:05.036Z,3.03
2018-10-02T02:33:33.399Z,3.00
2018-10-02T02:36:01.829Z,2.77
2018-10-02T02:38:30.445Z,2.90
2018-10-02T02:40:58.867Z,2.57
2018-10-02T02:43:27.498Z,2.53
2018-10-02T02:45:55.897Z,2.10
2018-10-02T02:48:29.651Z,2.40
2018-10-02T02:51:03.555Z,3.17
2018-10-02T02:53:32.094Z,2.50
2018-10-02T02:56:00.746Z,2.60
2018-10-02T02:58:29.209Z,2.50
2018-10-02T03:00:57.646Z,2.60
2018-10-02T03:03:26.050Z,2.70
2018-10-02T03:05:54.463Z,2.57
2018-10-02T03:08:22.949Z,2.77
2018-10-02T03:10:51.371Z,2.33
2018-10-02T03:13:19.789Z,2.20
2018-10-02T03:15:48.186Z,2.40
2018-10-02T03:18:16.687Z,2.27
2018-10-02T03:20:45.194Z,2.10
2018-10-02T03:23:13.697Z,2.10
2018-10-02T03:25:42.210Z,2.57
2018-10-02T03:28:10.657Z,2.93
2018-10-02T03:30:40.105Z,2.43
2018-10-02T03:33:08.596Z,2.63
2018-10-02T03:35:37.047Z,2.20
2018-10-02T03:38:05.562Z,2.63
2018-10-02T03:40:34.029Z,2.20
2018-10-02T03:43:02.446Z,2.60
2018-10-02T03:45:30.871Z,3.23
2018-10-02T03:47:59.330Z,2.87
2018-10-02T03:50:27.801Z,2.10
2018-10-02T03:52:56.198Z,3.07
2018-10-02T03:55:24.713Z,2.40
2018-10-02T03:57:53.154Z,2.50
2018-10-02T04:00:21.710Z,2.63
2018-10-02T04:02:50.085Z,3.63
2018-10-02T04:05:18.490Z,2.60
2018-10-02T04:07:46.818Z,2.50
2018-10-02T04:10:15.312Z,2.47
2018-10-02T04:12:43.675Z,2.60
2018-10-02T04:15:12.061Z,2.60
2018-10-02T04:17:40.490Z,2.33
2018-10-02T04:20:08.896Z,3.87
2018-10-02T04:22:37.425Z,3.33
2018-10-02T04:25:05.863Z,3.27
2018-10-02T04:27:34.342Z,2.77
2018-10-02T04:30:02.717Z,3.00
2018-10-02T04:32:31.290Z,2.50
2018-10-02T04:34:59.717Z,2.87
2018-10-02T04:37:28.174Z,3.70
2018-10-02T04:39:56.540Z,3.20
2018-10-02T04:42:25.066Z,3.37
2018-10-02T04:44:53.569Z,3.40
2018-10-02T04:47:21.969Z,3.57
2018-10-02T04:49:50.510Z,3.53
2018-10-02T04:52:18.926Z,4.20
2018-10-02T04:54:47.370Z,3.47
2018-10-02T04:57:15.991Z,3.50
2018-10-02T04:59:44.347Z,2.90
2018-10-02T05:02:12.895Z,3.67
2018-10-02T05:04:41.243Z,3.07
2018-10-02T05:07:09.790Z,3.70
2018-10-02T05:09:38.256Z,3.60
2018-10-02T05:12:07.058Z,4.40
2018-10-02T05:14:35.686Z,3.60
2018-10-02T05:17:04.188Z,3.80
2018-10-02T05:19:32.564Z,3.53
2018-10-02T05:22:01.031Z,3.73
2018-10-02T05:24:29.488Z,3.20
2018-10-02T05:26:57.873Z,3.97
2018-10-02T05:29:26.226Z,3.40
2018-10-02T05:31:54.840Z,3.70
2018-10-02T05:34:23.356Z,3.53
2018-10-02T05:36:51.736Z,3.80
2018-10-02T05:39:20.072Z,4.10
2018-10-02T05:41:48.567Z,4.90
2018-10-02T05:44:17.015Z,4.20
2018-10-02T05:46:45.479Z,4.47
2018-10-02T05:49:13.963Z,3.30
2018-10-02T05:51:42.443Z,4.20
2018-10-02T05:54:10.841Z,4.33
2018-10-02T05:56:39.362Z,4.63
2018-10-02T05:59:08.023Z,4.90
2018-10-02T06:01:36.614Z,4.33
2018-10-02T06:04:05.186Z,4.47
2018-10-02T06:06:33.732Z,4.90
2018-10-02T06:09:02.137Z,5.47
2018-10-02T06:11:30.538Z,4.20
2018-10-02T06:13:58.970Z,4.00
2018-10-02T06:16:27.352Z,5.20
2018-10-02T06:18:55.828Z,4.10
2018-10-02T06:21:24.434Z,4.30
2018-10-02T06:23:52.864Z,5.07
2018-10-02T06:26:21.388Z,4.00
2018-10-02T06:28:49.769Z,3.57
2018-10-02T06:31:18.258Z,4.73
2018-10-02T06:33:46.902Z,4.67
2018-10-02T06:36:15.302Z,3.60
2018-10-02T06:38:43.773Z,4.10
2018-10-02T06:41:12.271Z,3.73
2018-10-02T06:43:40.920Z,4.30
2018-10-02T06:46:09.745Z,3.83
2018-10-02T06:48:38.127Z,3.87
2018-10-02T06:51:06.897Z,3.53
2018-10-02T06:53:35.365Z,3.47
2018-10-02T06:56:04.082Z,3.60
2018-10-02T06:58:32.582Z,4.33
2018-10-02T07:01:01.098Z,3.63
2018-10-02T07:03:29.539Z,3.37
2018-10-02T07:05:58.041Z,4.53
2018-10-02T07:08:26.578Z,4.10
2018-10-02T07:10:55.068Z,4.27
2018-10-02T07:13:23.552Z,3.67
2018-10-02T07:15:51.966Z,3.80
2018-10-02T07:18:20.385Z,4.77
2018-10-02T07:20:48.818Z,4.30
2018-10-02T07:23:17.226Z,4.13
2018-10-02T07:25:45.634Z,3.33
2018-10-02T07:28:14.233Z,4.30
2018-10-02T07:30:42.655Z,3.90
2018-10-02T07:33:11.080Z,3.63
2018-10-02T07:35:39.553Z,4.13
2018-10-02T07:38:08.015Z,3.63
2018-10-02T07:40:36.610Z,3.93
2018-10-02T07:43:05.082Z,4.50
2018-10-02T07:45:33.563Z,4.33
2018-10-02T07:48:02.091Z,4.17
2018-10-02T07:50:30.631Z,3.90
2018-10-02T07:52:59.086Z,3.10
2018-10-02T07:55:27.487Z,3.33
2018-10-02T07:57:55.858Z,3.53
2018-10-02T08:00:24.245Z,3.60
2018-10-02T08:02:52.688Z,3.70
2018-10-02T08:05:21.078Z,3.37
2018-10-02T08:07:49.402Z,2.63
2018-10-02T08:10:18.078Z,3.43
2018-10-02T08:12:46.515Z,2.50
2018-10-02T08:15:14.935Z,2.70
2018-10-02T08:17:43.408Z,2.33
2018-10-02T08:20:11.858Z,3.23
2018-10-02T08:22:40.305Z,3.03
2018-10-02T08:25:08.703Z,2.80
2018-10-02T08:27:37.131Z,2.60
2018-10-02T08:30:06.148Z,2.80
2018-10-02T08:32:34.658Z,2.77
2018-10-02T08:35:03.186Z,2.47
2018-10-02T08:37:31.518Z,2.60
2018-10-02T08:39:59.938Z,3.07
2018-10-02T08:42:28.458Z,2.33
2018-10-02T08:44:57.165Z,2.67
2018-10-02T08:47:25.614Z,2.70
2018-10-02T08:49:54.083Z,2.97
2018-10-02T08:52:22.687Z,3.27
2018-10-02T08:54:51.234Z,3.60
2018-10-02T08:57:19.641Z,3.10
2018-10-02T08:59:48.075Z,3.10
2018-10-02T09:02:16.570Z,2.77
2018-10-02T09:04:44.932Z,3.57
2018-10-02T09:07:13.454Z,3.10
2018-10-02T09:09:41.852Z,3.77
2018-10-02T09:12:10.339Z,3.13
2018-10-02T09:14:38.939Z,2.20
2018-10-02T09:17:07.668Z,3.00
2018-10-02T09:19:36.055Z,2.87
2018-10-02T09:22:04.720Z,2.27
2018-10-02T09:24:33.342Z,2.70
2018-10-02T09:27:01.865Z,2.23
2018-10-02T09:29:30.347Z,3.00
2018-10-02T09:32:04.011Z,2.20
2018-10-02T09:35:41.811Z,2.10
2018-10-02T09:38:15.592Z,2.40
2018-10-02T09:41:48.050Z,2.70
2018-10-02T09:44:16.626Z,4.77
2018-10-02T09:46:45.133Z,6.37
2018-10-02T09:49:13.638Z,6.10
2018-10-02T09:51:42.273Z,4.70
2018-10-02T09:54:10.776Z,2.70
2018-10-02T09:56:42.377Z,2.60
2018-10-02T09:59:12.137Z,4.43
2018-10-02T10:01:45.981Z,4.73
2018-10-02T10:04:14.879Z,4.70
2018-10-02T10:06:43.349Z,3.47
2018-10-02T10:09:12.403Z,3.07
2018-10-02T10:11:41.799Z,3.37
2018-10-02T10:14:10.374Z,2.47
2018-10-02T10:16:39.242Z,2.40
2018-10-02T10:19:07.669Z,3.10
2018-10-02T10:21:36.431Z,2.03
2018-10-02T10:24:04.911Z,1.63
2018-10-02T10:26:33.364Z,2.30
2018-10-02T10:29:01.845Z,1.77
2018-10-02T10:31:30.478Z,1.77
2018-10-02T10:33:59.284Z,1.70
2018-10-02T10:36:27.835Z,2.03
2018-10-02T10:38:56.240Z,2.17
2018-10-02T10:41:24.690Z,2.23
2018-10-02T10:43:53.283Z,3.07
2018-10-02T10:46:21.800Z,2.20
2018-10-02T10:48:50.189Z,2.57
2018-10-02T10:51:18.894Z,2.13
2018-10-02T10:53:47.328Z,2.20
2018-10-02T10:56:15.761Z,2.70
2018-10-02T10:58:44.323Z,2.63
2018-10-02T11:01:12.886Z,2.53
2018-10-02T11:03:41.420Z,2.10
2018-10-02T11:06:09.949Z,2.03
2018-10-02T11:08:38.363Z,2.13
2018-10-02T11:11:06.708Z,1.70
2018-10-02T11:13:35.229Z,2.23
2018-10-02T11:16:03.722Z,2.00
2018-10-02T11:18:32.143Z,2.10
2018-10-02T11:21:00.694Z,2.03
2018-10-02T11:23:29.155Z,1.77
2018-10-02T11:25:57.510Z,2.20
2018-10-02T11:28:26.043Z,2.37
2018-10-02T11:30:54.711Z,2.40
2018-10-02T11:33:23.516Z,2.10
2018-10-02T11:35:52.061Z,1.90
2018-10-02T11:38:20.462Z,2.07
2018-10-02T11:40:49.008Z,2.10
2018-10-02T11:43:17.477Z,1.73
2018-10-02T11:45:45.831Z,1.90
2018-10-02T11:48:14.182Z,2.07
2018-10-02T11:50:42.520Z,2.50
2018-10-02T11:53:11.142Z,2.30
2018-10-02T11:55:39.643Z,2.70
2018-10-02T11:58:08.007Z,2.20
2018-10-02T12:00:36.701Z,2.00
2018-10-02T12:03:05.123Z,1.53
2018-10-02T12:05:33.593Z,2.17
2018-10-02T12:08:02.118Z,1.70
2018-10-02T12:10:30.584Z,1.83
2018-10-02T12:12:59.058Z,1.53
2018-10-02T12:15:27.428Z,2.20
2018-10-02T12:17:55.886Z,1.70
2018-10-02T12:20:24.329Z,1.53
2018-10-02T12:22:52.891Z,1.50
2018-10-02T12:25:21.469Z,1.60
2018-10-02T12:27:49.913Z,1.33
2018-10-02T12:30:18.348Z,1.60
2018-10-02T12:32:46.784Z,1.73
2018-10-02T12:35:15.236Z,1.20
2018-10-02T12:37:43.750Z,1.57
2018-10-02T12:40:12.278Z,1.37
2018-10-02T12:42:40.804Z,1.90
2018-10-02T12:45:09.337Z,1.57
2018-10-02T12:47:37.761Z,1.73
2018-10-02T12:50:06.290Z,2.70
2018-10-02T12:52:34.759Z,1.70
2018-10-02T12:55:03.132Z,1.87
2018-10-02T12:57:31.687Z,1.80
2018-10-02T13:00:00.207Z,1.80
2018-10-02T13:02:28.720Z,1.20
2018-10-02T13:04:57.115Z,2.30
2018-10-02T13:07:25.672Z,1.80
2018-10-02T13:09:54.108Z,1.30
2018-10-02T13:12:22.526Z,1.53
2018-10-02T13:14:50.906Z,1.87
2018-10-02T13:17:19.443Z,1.57
2018-10-02T13:19:47.894Z,2.20
2018-10-02T13:22:16.415Z,1.63
2018-10-02T13:24:45.272Z,2.13
2018-10-02T13:27:13.757Z,2.00
2018-10-02T13:29:42.187Z,1.77
2018-10-02T13:32:10.647Z,2.07
2018-10-02T13:34:39.213Z,1.33
2018-10-02T13:37:07.532Z,1.83
2018-10-02T13:39:36.112Z,1.47
2018-10-02T13:42:04.694Z,1.70
2018-10-02T13:44:33.235Z,2.33
2018-10-02T13:47:01.891Z,1.40
2018-10-02T13:49:30.411Z,1.70
2018-10-02T13:51:58.851Z,1.37
2018-10-02T13:54:27.270Z,1.40
2018-10-02T13:56:55.651Z,1.40
2018-10-02T13:59:24.095Z,1.63
2018-10-02T14:01:52.609Z,1.30
2018-10-02T14:04:21.123Z,1.57
2018-10-02T14:06:49.806Z,1.80
2018-10-02T14:09:18.310Z,1.97
2018-10-02T14:11:46.783Z,1.63
2018-10-02T14:14:15.318Z,1.40
2018-10-02T14:16:43.809Z,2.10
2018-10-02T14:19:12.210Z,1.63
2018-10-02T14:21:40.797Z,1.43
2018-10-02T14:24:09.184Z,1.57
2018-10-02T14:26:37.568Z,1.60
2018-10-02T14:29:06.283Z,1.73
2018-10-02T14:31:34.713Z,1.87
2018-10-02T14:34:03.275Z,1.70
2018-10-02T14:36:32.030Z,1.80
2018-10-02T14:39:00.476Z,1.43
2018-10-02T14:41:28.964Z,1.90
2018-10-02T14:43:57.345Z,1.70
2018-10-02T14:46:25.883Z,1.77
2018-10-02T14:48:54.332Z,2.20
2018-10-02T14:51:22.874Z,2.13
2018-10-02T14:53:51.469Z,2.50
2018-10-02T14:56:20.129Z,2.03
2018-10-02T14:58:48.536Z,2.07
2018-10-02T15:01:17.074Z,1.90
2018-10-02T15:03:45.500Z,2.47
2018-10-02T15:06:13.936Z,2.40
2018-10-02T15:08:42.444Z,2.40
2018-10-02T15:11:10.911Z,2.27
2018-10-02T15:13:39.436Z,2.60
2018-10-02T15:16:07.839Z,2.63
2018-10-02T15:18:36.292Z,1.90
2018-10-02T15:21:04.772Z,3.20
2018-10-02T15:23:33.259Z,2.70
2018-10-02T15:26:01.711Z,2.30
2018-10-02T15:28:30.190Z,2.20
2018-10-02T15:30:58.552Z,2.63
2018-10-02T15:33:27.084Z,2.57
2018-10-02T15:35:55.652Z,2.50
2018-10-02T15:38:24.201Z,2.47
2018-10-02T15:40:52.674Z,2.90
2018-10-02T15:43:21.214Z,1.93
2018-10-02T15:45:49.627Z,2.00
2018-10-02T15:48:18.175Z,2.20
2018-10-02T15:50:46.611Z,2.60
2018-10-02T15:53:15.039Z,2.33
2018-10-02T15:55:43.529Z,2.37
2018-10-02T15:58:12.117Z,2.47
2018-10-02T16:00:40.451Z,2.43
2018-10-02T16:03:08.866Z,3.10
2018-10-02T16:05:37.393Z,2.20
2018-10-02T16:08:05.818Z,2.47
2018-10-02T16:10:34.245Z,2.60
2018-10-02T16:13:02.802Z,2.10
2018-10-02T16:15:31.164Z,2.43
2018-10-02T16:17:59.774Z,1.47
2018-10-02T16:20:28.286Z,2.00
2018-10-02T16:22:56.832Z,1.90
2018-10-02T16:25:25.482Z,1.93
2018-10-02T16:27:53.987Z,1.60
2018-10-02T16:30:22.406Z,1.93
2018-10-02T16:32:50.870Z,2.30
2018-10-02T16:35:19.267Z,1.80
2018-10-02T16:37:47.699Z,1.77
2018-10-02T16:40:16.276Z,1.80
2018-10-02T16:42:44.813Z,1.70
2018-10-02T16:45:13.354Z,1.80
2018-10-02T16:47:41.862Z,1.50
2018-10-02T16:50:10.351Z,1.90
2018-10-02T16:52:38.899Z,2.37
2018-10-02T16:55:07.480Z,2.17
2018-10-02T16:57:35.969Z,1.80
2018-10-02T17:00:05.737Z,1.67
2018-10-02T17:02:34.140Z,1.90
2018-10-02T17:05:02.701Z,1.93
2018-10-02T17:07:31.415Z,2.23
2018-10-02T17:09:59.895Z,2.03
2018-10-02T17:12:28.407Z,1.40
2018-10-02T17:14:56.822Z,1.47
2018-10-02T17:17:25.392Z,1.67
2018-10-02T17:19:54.060Z,1.73
2018-10-02T17:22:22.561Z,1.83
2018-10-02T17:24:50.997Z,1.60
2018-10-02T17:27:19.486Z,1.80
2018-10-02T17:29:48.053Z,1.50
2018-10-02T17:32:16.505Z,1.70
2018-10-02T17:34:44.955Z,1.90
2018-10-02T17:37:13.532Z,2.00
2018-10-02T17:39:42.142Z,1.43
2018-10-02T17:42:10.610Z,2.10
2018-10-02T17:44:39.218Z,1.67
2018-10-02T17:47:07.670Z,1.93
2018-10-02T17:49:36.194Z,2.00
2018-10-02T17:52:04.790Z,2.40
2018-10-02T17:54:33.264Z,2.43
2018-10-02T17:57:01.801Z,2.27
2018-10-02T17:59:30.294Z,2.03
2018-10-02T18:01:58.766Z,1.60
2018-10-02T18:04:27.171Z,2.73
2018-10-02T18:06:56.824Z,1.90
2018-10-02T18:09:26.658Z,1.90
2018-10-02T18:11:56.613Z,2.13
2018-10-02T18:14:26.276Z,1.63
2018-10-02T18:16:56.110Z,1.40
2018-10-02T18:19:25.899Z,1.60
2018-10-02T18:21:55.614Z,1.97
2018-10-02T18:24:25.792Z,2.30
2018-10-02T18:26:55.527Z,2.80
2018-10-02T18:29:25.234Z,2.30
2018-10-02T18:31:54.786Z,1.93
2018-10-02T18:34:24.717Z,2.40
2018-10-02T18:36:54.581Z,2.23
2018-10-02T18:39:24.236Z,1.93
2018-10-02T18:41:53.985Z,1.90
2018-10-02T18:44:23.866Z,2.20
2018-10-02T18:46:53.510Z,1.80
2018-10-02T18:49:23.237Z,1.50
2018-10-02T18:51:53.087Z,1.87
2018-10-02T18:54:22.870Z,2.00
2018-10-02T18:56:52.914Z,1.77
2018-10-02T18:59:23.525Z,2.17
2018-10-02T19:01:53.356Z,2.13
2018-10-02T19:04:23.112Z,1.97
2018-10-02T19:06:52.845Z,1.50
2018-10-02T19:09:22.754Z,1.60
2018-10-02T19:11:57.757Z,1.67
2018-10-02T19:14:26.261Z,1.77
2018-10-02T19:16:54.702Z,1.70
2018-10-02T19:19:28.475Z,2.07
2018-10-02T19:21:57.144Z,2.13
2018-10-02T19:24:26.245Z,2.13
2018-10-02T19:26:54.835Z,1.60
2018-10-02T19:29:23.502Z,2.23
2018-10-02T19:31:57.396Z,2.13
2018-10-02T19:34:25.970Z,1.83
2018-10-02T19:36:54.468Z,2.20
2018-10-02T19:39:26.065Z,2.17
2018-10-02T19:41:55.096Z,1.93
2018-10-02T19:44:24.069Z,1.90
2018-10-02T19:46:54.915Z,2.23
2018-10-02T19:49:24.983Z,2.20
2018-10-02T19:51:55.799Z,2.37
2018-10-02T19:54:25.246Z,2.33
2018-10-02T19:56:53.977Z,2.50
2018-10-02T19:59:22.884Z,2.17
2018-10-02T20:01:51.473Z,2.47
2018-10-02T20:04:20.006Z,2.47
2018-10-02T20:06:48.525Z,2.50
2018-10-02T20:09:17.137Z,1.97
2018-10-02T20:11:45.748Z,2.00
2018-10-02T20:14:14.312Z,2.10
2018-10-02T20:16:42.885Z,1.73
2018-10-02T20:19:11.558Z,2.03
2018-10-02T20:21:40.129Z,2.17
2018-10-02T20:24:08.706Z,1.60
2018-10-02T20:26:37.158Z,1.90
2018-10-02T20:29:05.713Z,2.20
2018-10-02T20:31:38.338Z,2.50
2018-10-02T20:34:06.889Z,3.00
2018-10-02T20:36:35.495Z,3.43
2018-10-02T20:39:05.139Z,2.80
2018-10-02T20:41:33.694Z,1.73
2018-10-02T20:44:02.256Z,1.57
2018-10-02T20:46:30.688Z,1.50
2018-10-02T20:48:59.875Z,1.73
2018-10-02T20:51:28.479Z,1.90
2018-10-02T20:53:57.611Z,1.70
2018-10-02T20:56:26.637Z,1.83
2018-10-02T20:58:55.344Z,1.90
2018-10-02T21:01:24.922Z,2.23
2018-10-02T21:03:53.636Z,1.90
2018-10-02T21:06:22.180Z,2.33
2018-10-02T21:08:50.825Z,2.43
2018-10-02T21:11:19.262Z,2.67
2018-10-02T21:13:48.916Z,2.10
2018-10-02T21:16:17.760Z,2.27
2018-10-02T21:18:46.200Z,2.63
2018-10-02T21:21:14.726Z,2.83
2018-10-02T21:23:43.863Z,2.83
2018-10-02T21:26:12.309Z,3.13
2018-10-02T21:28:41.599Z,2.47
2018-10-02T21:31:10.034Z,3.00
2018-10-02T21:33:38.663Z,2.83
2018-10-02T21:36:07.313Z,3.77
2018-10-02T21:38:35.714Z,2.10
2018-10-02T21:41:04.311Z,2.30
2018-10-02T21:43:32.930Z,2.10
2018-10-02T21:46:01.457Z,2.40
2018-10-02T21:48:29.990Z,2.23
2018-10-02T21:50:58.490Z,2.97
2018-10-02T21:53:27.508Z,2.67
2018-10-02T21:55:55.978Z,2.60
2018-10-02T21:58:24.553Z,1.70
2018-10-02T22:00:57.234Z,2.07
2018-10-02T22:03:25.716Z,2.30
2018-10-02T22:05:54.094Z,2.40
2018-10-02T22:08:22.536Z,2.47
2018-10-02T22:10:51.220Z,2.60
2018-10-02T22:13:19.861Z,2.43
2018-10-02T22:15:48.347Z,2.53
2018-10-02T22:18:17.453Z,2.40
2018-10-02T22:20:45.997Z,2.40
2018-10-02T22:23:14.410Z,2.80
2018-10-02T22:25:42.831Z,2.20
2018-10-02T22:28:11.297Z,2.70
2018-10-02T22:30:39.691Z,2.27
2018-10-02T22:33:08.209Z,3.27
2018-10-02T22:35:36.518Z,3.30
2018-10-02T22:38:05.075Z,2.30
2018-10-02T22:40:33.485Z,2.10
2018-10-02T22:43:02.034Z,3.03
2018-10-02T22:45:30.848Z,2.43
2018-10-02T22:47:59.327Z,2.03
2018-10-02T22:50:27.812Z,3.07
2018-10-02T22:52:56.324Z,2.20
2018-10-02T22:55:24.836Z,1.97
2018-10-02T22:57:53.338Z,3.03
2018-10-02T23:00:21.737Z,3.07
2018-10-02T23:02:50.366Z,4.53
2018-10-02T23:05:18.859Z,3.80
2018-10-02T23:07:47.317Z,2.97
2018-10-02T23:10:15.923Z,2.80
2018-10-02T23:12:44.528Z,2.40
2018-10-02T23:15:13.104Z,2.30
2018-10-02T23:17:41.527Z,2.60
2018-10-02T23:20:09.939Z,2.77
2018-10-02T23:22:38.413Z,2.50
2018-10-02T23:25:07.029Z,1.80
2018-10-02T23:27:35.637Z,2.50
2018-10-02T23:30:04.226Z,2.27
2018-10-02T23:32:32.771Z,2.37
2018-10-02T23:35:01.201Z,2.30
2018-10-02T23:37:29.651Z,1.73
2018-10-02T23:39:58.118Z,2.40
2018-10-02T23:42:26.676Z,2.00
2018-10-02T23:44:55.070Z,2.10
2018-10-02T23:47:23.639Z,2.07
2018-10-02T23:49:52.094Z,1.73
2018-10-02T23:52:20.562Z,2.60
2018-10-02T23:54:49.034Z,2.00
2018-10-02T23:57:17.565Z,1.97
2018-10-02T23:59:46.043Z,1.60
